sensor_id;sensor_type;location;lat;lon;timestamp;temperature;humidity
56729;DHT22;42612;52.232;7.560;2022-07-29T00:02:03;23.70;39.40
56729;DHT22;42612;52.232;7.560;2022-07-29T00:04:49;23.70;39.40
56729;DHT22;42612;52.232;7.560;2022-07-29T00:07:35;23.70;39.40
56729;DHT22;42612;52.232;7.560;2022-07-29T00:10:21;23.70;39.50
56729;DHT22;42612;52.232;7.560;2022-07-29T00:13:07;23.60;39.40
56729;DHT22;42612;52.232;7.560;2022-07-29T00:15:53;23.60;39.50
56729;DHT22;42612;52.232;7.560;2022-07-29T00:18:38;23.60;39.50
56729;DHT22;42612;52.232;7.560;2022-07-29T00:21:25;23.60;39.50
56729;DHT22;42612;52.232;7.560;2022-07-29T00:24:10;23.60;39.50
56729;DHT22;42612;52.232;7.560;2022-07-29T00:26:56;23.60;39.60
56729;DHT22;42612;52.232;7.560;2022-07-29T00:29:42;23.60;39.60
56729;DHT22;42612;52.232;7.560;2022-07-29T00:32:28;23.50;39.60
56729;DHT22;42612;52.232;7.560;2022-07-29T00:35:14;23.50;39.60
56729;DHT22;42612;52.232;7.560;2022-07-29T00:38:19;23.40;39.50
56729;DHT22;42612;52.232;7.560;2022-07-29T00:41:05;23.40;39.60
56729;DHT22;42612;52.232;7.560;2022-07-29T00:43:51;23.30;39.60
56729;DHT22;42612;52.232;7.560;2022-07-29T00:46:37;23.30;39.80
56729;DHT22;42612;52.232;7.560;2022-07-29T00:49:23;23.20;39.80
56729;DHT22;42612;52.232;7.560;2022-07-29T00:52:09;23.10;39.70
56729;DHT22;42612;52.232;7.560;2022-07-29T00:54:56;23.10;39.90
56729;DHT22;42612;52.232;7.560;2022-07-29T00:57:43;23.10;39.90
56729;DHT22;42612;52.232;7.560;2022-07-29T01:00:29;23.00;39.90
56729;DHT22;42612;52.232;7.560;2022-07-29T01:03:16;23.00;40.00
56729;DHT22;42612;52.232;7.560;2022-07-29T01:06:02;23.00;40.50
56729;DHT22;42612;52.232;7.560;2022-07-29T01:08:48;23.00;40.10
56729;DHT22;42612;52.232;7.560;2022-07-29T01:11:34;23.00;40.10
56729;DHT22;42612;52.232;7.560;2022-07-29T01:14:21;23.00;40.10
56729;DHT22;42612;52.232;7.560;2022-07-29T01:17:12;23.00;40.20
56729;DHT22;42612;52.232;7.560;2022-07-29T01:26:04;22.90;40.20
56729;DHT22;42612;52.232;7.560;2022-07-29T01:29:12;23.00;40.30
56729;DHT22;42612;52.232;7.560;2022-07-29T01:32:15;23.00;40.30
56729;DHT22;42612;52.232;7.560;2022-07-29T01:37:55;23.00;40.40
56729;DHT22;42612;52.232;7.560;2022-07-29T01:41:05;23.00;40.30
56729;DHT22;42612;52.232;7.560;2022-07-29T01:43:56;23.00;40.40
56729;DHT22;42612;52.232;7.560;2022-07-29T01:46:48;23.00;40.40
56729;DHT22;42612;52.232;7.560;2022-07-29T01:49:39;23.00;40.50
56729;DHT22;42612;52.232;7.560;2022-07-29T01:55:28;23.00;40.40
56729;DHT22;42612;52.232;7.560;2022-07-29T01:58:17;22.90;40.40
56729;DHT22;42612;52.232;7.560;2022-07-29T02:01:03;22.90;40.40
56729;DHT22;42612;52.232;7.560;2022-07-29T02:03:50;22.90;40.50
56729;DHT22;42612;52.232;7.560;2022-07-29T02:06:38;22.90;40.50
56729;DHT22;42612;52.232;7.560;2022-07-29T02:09:26;22.80;40.40
56729;DHT22;42612;52.232;7.560;2022-07-29T02:12:14;22.80;40.40
56729;DHT22;42612;52.232;7.560;2022-07-29T02:15:01;22.80;40.50
56729;DHT22;42612;52.232;7.560;2022-07-29T02:17:53;22.70;40.50
56729;DHT22;42612;52.232;7.560;2022-07-29T02:20:42;22.70;41.30
56729;DHT22;42612;52.232;7.560;2022-07-29T02:23:33;22.70;40.70
56729;DHT22;42612;52.232;7.560;2022-07-29T02:26:21;22.60;40.60
56729;DHT22;42612;52.232;7.560;2022-07-29T02:29:09;22.60;40.60
56729;DHT22;42612;52.232;7.560;2022-07-29T02:31:55;22.60;40.70
56729;DHT22;42612;52.232;7.560;2022-07-29T02:34:42;22.60;40.70
56729;DHT22;42612;52.232;7.560;2022-07-29T02:37:29;22.60;40.70
56729;DHT22;42612;52.232;7.560;2022-07-29T02:40:16;22.60;40.70
56729;DHT22;42612;52.232;7.560;2022-07-29T02:43:02;22.60;40.70
56729;DHT22;42612;52.232;7.560;2022-07-29T02:45:51;22.50;40.70
56729;DHT22;42612;52.232;7.560;2022-07-29T02:48:41;22.50;40.80
56729;DHT22;42612;52.232;7.560;2022-07-29T02:51:42;22.40;40.80
56729;DHT22;42612;52.232;7.560;2022-07-29T02:54:33;22.40;40.80
56729;DHT22;42612;52.232;7.560;2022-07-29T02:57:30;22.30;40.80
56729;DHT22;42612;52.232;7.560;2022-07-29T03:00:18;22.30;40.90
56729;DHT22;42612;52.232;7.560;2022-07-29T03:03:07;22.20;40.90
56729;DHT22;42612;52.232;7.560;2022-07-29T03:05:55;22.10;41.00
56729;DHT22;42612;52.232;7.560;2022-07-29T03:08:42;22.10;41.10
56729;DHT22;42612;52.232;7.560;2022-07-29T03:11:29;22.10;41.20
56729;DHT22;42612;52.232;7.560;2022-07-29T03:14:19;22.10;41.20
56729;DHT22;42612;52.232;7.560;2022-07-29T03:17:05;22.00;41.10
56729;DHT22;42612;52.232;7.560;2022-07-29T03:19:52;22.00;41.20
56729;DHT22;42612;52.232;7.560;2022-07-29T03:22:40;22.00;41.20
56729;DHT22;42612;52.232;7.560;2022-07-29T03:25:32;22.00;41.20
56729;DHT22;42612;52.232;7.560;2022-07-29T03:28:18;21.90;41.20
56729;DHT22;42612;52.232;7.560;2022-07-29T03:31:05;21.90;41.20
56729;DHT22;42612;52.232;7.560;2022-07-29T03:33:50;21.80;41.20
56729;DHT22;42612;52.232;7.560;2022-07-29T03:36:36;21.80;41.30
56729;DHT22;42612;52.232;7.560;2022-07-29T03:39:24;21.80;41.50
56729;DHT22;42612;52.232;7.560;2022-07-29T03:42:13;21.80;41.40
56729;DHT22;42612;52.232;7.560;2022-07-29T03:45:05;21.80;41.50
56729;DHT22;42612;52.232;7.560;2022-07-29T03:47:54;21.80;41.60
56729;DHT22;42612;52.232;7.560;2022-07-29T03:50:42;21.80;41.50
56729;DHT22;42612;52.232;7.560;2022-07-29T03:53:29;21.70;41.50
56729;DHT22;42612;52.232;7.560;2022-07-29T03:56:15;21.70;41.60
56729;DHT22;42612;52.232;7.560;2022-07-29T03:59:02;21.70;41.50
56729;DHT22;42612;52.232;7.560;2022-07-29T04:01:48;21.70;41.50
56729;DHT22;42612;52.232;7.560;2022-07-29T04:04:35;21.70;41.60
56729;DHT22;42612;52.232;7.560;2022-07-29T04:07:21;21.70;41.70
56729;DHT22;42612;52.232;7.560;2022-07-29T04:10:07;21.60;41.60
56729;DHT22;42612;52.232;7.560;2022-07-29T04:12:54;21.60;41.60
56729;DHT22;42612;52.232;7.560;2022-07-29T04:15:40;21.60;41.70
56729;DHT22;42612;52.232;7.560;2022-07-29T04:18:26;21.50;41.70
56729;DHT22;42612;52.232;7.560;2022-07-29T04:21:12;21.50;41.80
56729;DHT22;42612;52.232;7.560;2022-07-29T04:23:58;21.50;41.80
56729;DHT22;42612;52.232;7.560;2022-07-29T04:26:45;21.40;41.70
56729;DHT22;42612;52.232;7.560;2022-07-29T04:29:32;21.40;41.80
56729;DHT22;42612;52.232;7.560;2022-07-29T04:32:18;21.40;41.90
56729;DHT22;42612;52.232;7.560;2022-07-29T04:35:04;21.30;41.90
56729;DHT22;42612;52.232;7.560;2022-07-29T04:37:50;21.30;42.10
56729;DHT22;42612;52.232;7.560;2022-07-29T04:40:36;21.20;42.10
56729;DHT22;42612;52.232;7.560;2022-07-29T04:43:22;21.20;42.10
56729;DHT22;42612;52.232;7.560;2022-07-29T04:46:07;21.20;42.20
56729;DHT22;42612;52.232;7.560;2022-07-29T04:48:53;21.10;42.20
56729;DHT22;42612;52.232;7.560;2022-07-29T04:51:39;21.10;42.20
56729;DHT22;42612;52.232;7.560;2022-07-29T04:54:25;21.10;42.30
56729;DHT22;42612;52.232;7.560;2022-07-29T04:57:11;21.10;42.40
56729;DHT22;42612;52.232;7.560;2022-07-29T04:59:57;21.10;42.50
56729;DHT22;42612;52.232;7.560;2022-07-29T05:02:43;21.10;42.60
56729;DHT22;42612;52.232;7.560;2022-07-29T05:05:29;21.10;42.60
56729;DHT22;42612;52.232;7.560;2022-07-29T05:08:15;21.10;42.60
56729;DHT22;42612;52.232;7.560;2022-07-29T05:11:01;21.20;42.80
56729;DHT22;42612;52.232;7.560;2022-07-29T05:13:47;21.30;42.80
56729;DHT22;42612;52.232;7.560;2022-07-29T05:16:33;21.30;42.80
56729;DHT22;42612;52.232;7.560;2022-07-29T05:19:19;21.30;42.80
56729;DHT22;42612;52.232;7.560;2022-07-29T05:22:05;21.30;42.80
56729;DHT22;42612;52.232;7.560;2022-07-29T05:24:51;21.30;42.90
56729;DHT22;42612;52.232;7.560;2022-07-29T05:27:37;21.30;42.90
56729;DHT22;42612;52.232;7.560;2022-07-29T05:30:23;21.30;42.80
56729;DHT22;42612;52.232;7.560;2022-07-29T05:33:09;21.40;42.90
56729;DHT22;42612;52.232;7.560;2022-07-29T05:35:55;21.40;42.90
56729;DHT22;42612;52.232;7.560;2022-07-29T05:38:41;21.40;43.00
56729;DHT22;42612;52.232;7.560;2022-07-29T05:41:27;21.50;43.10
56729;DHT22;42612;52.232;7.560;2022-07-29T05:44:13;21.50;43.10
56729;DHT22;42612;52.232;7.560;2022-07-29T05:46:59;21.50;43.00
56729;DHT22;42612;52.232;7.560;2022-07-29T05:49:45;21.60;43.10
56729;DHT22;42612;52.232;7.560;2022-07-29T05:52:31;21.60;43.10
56729;DHT22;42612;52.232;7.560;2022-07-29T05:55:17;21.60;43.00
56729;DHT22;42612;52.232;7.560;2022-07-29T05:58:03;21.70;43.10
56729;DHT22;42612;52.232;7.560;2022-07-29T06:00:49;21.70;43.00
56729;DHT22;42612;52.232;7.560;2022-07-29T06:03:35;21.70;43.00
56729;DHT22;42612;52.232;7.560;2022-07-29T06:06:23;21.70;43.10
56729;DHT22;42612;52.232;7.560;2022-07-29T06:09:09;21.80;43.10
56729;DHT22;42612;52.232;7.560;2022-07-29T06:11:55;21.80;43.10
56729;DHT22;42612;52.232;7.560;2022-07-29T06:14:41;21.80;43.10
56729;DHT22;42612;52.232;7.560;2022-07-29T06:17:27;21.80;43.10
56729;DHT22;42612;52.232;7.560;2022-07-29T06:20:13;21.80;43.10
56729;DHT22;42612;52.232;7.560;2022-07-29T06:22:59;21.80;43.10
56729;DHT22;42612;52.232;7.560;2022-07-29T06:25:45;21.80;43.10
56729;DHT22;42612;52.232;7.560;2022-07-29T06:28:31;21.90;43.10
56729;DHT22;42612;52.232;7.560;2022-07-29T06:31:18;21.90;43.10
56729;DHT22;42612;52.232;7.560;2022-07-29T06:34:04;21.90;43.10
56729;DHT22;42612;52.232;7.560;2022-07-29T06:36:50;21.90;43.10
56729;DHT22;42612;52.232;7.560;2022-07-29T06:39:36;21.90;43.10
56729;DHT22;42612;52.232;7.560;2022-07-29T06:42:22;22.00;43.30
56729;DHT22;42612;52.232;7.560;2022-07-29T06:45:08;22.00;43.20
56729;DHT22;42612;52.232;7.560;2022-07-29T06:47:54;22.00;43.20
56729;DHT22;42612;52.232;7.560;2022-07-29T06:50:40;22.10;43.10
56729;DHT22;42612;52.232;7.560;2022-07-29T06:53:26;22.10;43.00
56729;DHT22;42612;52.232;7.560;2022-07-29T06:56:13;22.10;43.00
56729;DHT22;42612;52.232;7.560;2022-07-29T06:58:59;22.20;43.00
56729;DHT22;42612;52.232;7.560;2022-07-29T07:01:45;22.20;43.00
56729;DHT22;42612;52.232;7.560;2022-07-29T07:04:31;22.20;42.90
56729;DHT22;42612;52.232;7.560;2022-07-29T07:07:17;22.20;43.00
56729;DHT22;42612;52.232;7.560;2022-07-29T07:10:03;22.20;43.10
56729;DHT22;42612;52.232;7.560;2022-07-29T07:12:49;22.20;43.10
56729;DHT22;42612;52.232;7.560;2022-07-29T07:15:35;22.30;43.20
56729;DHT22;42612;52.232;7.560;2022-07-29T07:18:22;22.30;43.20
56729;DHT22;42612;52.232;7.560;2022-07-29T07:21:08;22.30;43.10
56729;DHT22;42612;52.232;7.560;2022-07-29T07:23:54;22.30;43.10
56729;DHT22;42612;52.232;7.560;2022-07-29T07:26:40;22.30;43.20
56729;DHT22;42612;52.232;7.560;2022-07-29T07:29:26;22.30;43.20
56729;DHT22;42612;52.232;7.560;2022-07-29T07:32:12;22.30;43.10
56729;DHT22;42612;52.232;7.560;2022-07-29T07:34:58;22.30;43.10
56729;DHT22;42612;52.232;7.560;2022-07-29T07:37:44;22.30;43.10
56729;DHT22;42612;52.232;7.560;2022-07-29T07:40:30;22.30;43.20
56729;DHT22;42612;52.232;7.560;2022-07-29T07:43:17;22.30;43.10
56729;DHT22;42612;52.232;7.560;2022-07-29T07:46:03;22.30;43.20
56729;DHT22;42612;52.232;7.560;2022-07-29T07:48:48;22.30;43.20
56729;DHT22;42612;52.232;7.560;2022-07-29T07:51:34;22.40;43.30
56729;DHT22;42612;52.232;7.560;2022-07-29T07:54:20;22.40;43.30
56729;DHT22;42612;52.232;7.560;2022-07-29T07:57:06;22.40;43.50
56729;DHT22;42612;52.232;7.560;2022-07-29T07:59:52;22.40;43.30
56729;DHT22;42612;52.232;7.560;2022-07-29T08:02:38;22.50;43.50
56729;DHT22;42612;52.232;7.560;2022-07-29T08:05:25;22.50;43.50
56729;DHT22;42612;52.232;7.560;2022-07-29T08:08:11;22.50;43.50
56729;DHT22;42612;52.232;7.560;2022-07-29T08:10:57;22.60;44.20
56729;DHT22;42612;52.232;7.560;2022-07-29T08:13:43;22.60;43.60
56729;DHT22;42612;52.232;7.560;2022-07-29T08:16:29;22.60;44.30
56729;DHT22;42612;52.232;7.560;2022-07-29T08:19:14;22.70;43.70
56729;DHT22;42612;52.232;7.560;2022-07-29T08:22:00;22.70;43.70
56729;DHT22;42612;52.232;7.560;2022-07-29T08:24:46;22.70;43.70
56729;DHT22;42612;52.232;7.560;2022-07-29T08:27:37;22.80;43.70
56729;DHT22;42612;52.232;7.560;2022-07-29T08:30:24;22.80;43.60
56729;DHT22;42612;52.232;7.560;2022-07-29T08:33:10;22.90;43.50
56729;DHT22;42612;52.232;7.560;2022-07-29T08:35:56;22.90;43.40
56729;DHT22;42612;52.232;7.560;2022-07-29T08:38:42;23.00;43.50
56729;DHT22;42612;52.232;7.560;2022-07-29T08:41:28;23.00;43.40
56729;DHT22;42612;52.232;7.560;2022-07-29T08:44:17;23.10;43.40
56729;DHT22;42612;52.232;7.560;2022-07-29T08:47:04;23.10;43.40
56729;DHT22;42612;52.232;7.560;2022-07-29T08:49:50;23.10;43.40
56729;DHT22;42612;52.232;7.560;2022-07-29T08:52:38;23.10;43.30
56729;DHT22;42612;52.232;7.560;2022-07-29T08:55:25;23.10;43.30
56729;DHT22;42612;52.232;7.560;2022-07-29T08:58:11;23.20;43.40
56729;DHT22;42612;52.232;7.560;2022-07-29T09:01:00;23.20;43.30
56729;DHT22;42612;52.232;7.560;2022-07-29T09:03:47;23.20;43.30
56729;DHT22;42612;52.232;7.560;2022-07-29T09:06:34;23.20;43.30
56729;DHT22;42612;52.232;7.560;2022-07-29T09:09:23;23.20;43.30
56729;DHT22;42612;52.232;7.560;2022-07-29T09:12:09;23.20;43.30
56729;DHT22;42612;52.232;7.560;2022-07-29T09:14:57;23.30;43.40
56729;DHT22;42612;52.232;7.560;2022-07-29T09:17:46;23.30;43.40
56729;DHT22;42612;52.232;7.560;2022-07-29T09:20:33;23.30;43.40
56729;DHT22;42612;52.232;7.560;2022-07-29T09:23:37;23.30;43.40
56729;DHT22;42612;52.232;7.560;2022-07-29T09:26:27;23.40;43.40
56729;DHT22;42612;52.232;7.560;2022-07-29T09:29:16;23.40;43.40
56729;DHT22;42612;52.232;7.560;2022-07-29T09:32:08;23.40;43.30
56729;DHT22;42612;52.232;7.560;2022-07-29T09:38:20;23.50;43.30
56729;DHT22;42612;52.232;7.560;2022-07-29T09:41:06;23.50;43.40
56729;DHT22;42612;52.232;7.560;2022-07-29T09:43:57;23.50;43.30
56729;DHT22;42612;52.232;7.560;2022-07-29T09:52:44;23.60;43.30
56729;DHT22;42612;52.232;7.560;2022-07-29T09:55:50;23.50;43.20
56729;DHT22;42612;52.232;7.560;2022-07-29T09:58:36;23.50;43.20
56729;DHT22;42612;52.232;7.560;2022-07-29T10:01:31;23.50;43.30
56729;DHT22;42612;52.232;7.560;2022-07-29T10:04:18;23.60;43.40
56729;DHT22;42612;52.232;7.560;2022-07-29T10:07:04;23.60;43.30
56729;DHT22;42612;52.232;7.560;2022-07-29T10:09:54;23.60;43.40
56729;DHT22;42612;52.232;7.560;2022-07-29T10:12:48;23.60;43.50
56729;DHT22;42612;52.232;7.560;2022-07-29T10:15:37;23.70;43.50
56729;DHT22;42612;52.232;7.560;2022-07-29T10:18:26;23.60;43.80
56729;DHT22;42612;52.232;7.560;2022-07-29T10:21:12;23.70;44.00
56729;DHT22;42612;52.232;7.560;2022-07-29T10:23:58;23.70;44.10
56729;DHT22;42612;52.232;7.560;2022-07-29T10:26:44;23.60;44.10
56729;DHT22;42612;52.232;7.560;2022-07-29T10:29:32;23.60;44.40
56729;DHT22;42612;52.232;7.560;2022-07-29T10:41:18;23.60;44.70
56729;DHT22;42612;52.232;7.560;2022-07-29T10:44:17;23.60;45.30
56729;DHT22;42612;52.232;7.560;2022-07-29T10:47:04;23.60;44.50
56729;DHT22;42612;52.232;7.560;2022-07-29T10:50:02;23.60;44.70
56729;DHT22;42612;52.232;7.560;2022-07-29T10:55:36;23.50;44.70
56729;DHT22;42612;52.232;7.560;2022-07-29T10:58:25;23.50;44.80
56729;DHT22;42612;52.232;7.560;2022-07-29T11:01:27;23.50;45.00
56729;DHT22;42612;52.232;7.560;2022-07-29T11:04:16;23.50;45.00
56729;DHT22;42612;52.232;7.560;2022-07-29T11:07:31;23.50;45.10
56729;DHT22;42612;52.232;7.560;2022-07-29T11:10:20;23.50;45.10
56729;DHT22;42612;52.232;7.560;2022-07-29T11:13:06;23.50;45.00
56729;DHT22;42612;52.232;7.560;2022-07-29T11:15:53;23.50;44.90
56729;DHT22;42612;52.232;7.560;2022-07-29T11:21:56;23.50;44.90
56729;DHT22;42612;52.232;7.560;2022-07-29T11:24:43;23.50;44.80
56729;DHT22;42612;52.232;7.560;2022-07-29T11:27:32;23.50;44.80
56729;DHT22;42612;52.232;7.560;2022-07-29T11:33:33;23.40;44.60
56729;DHT22;42612;52.232;7.560;2022-07-29T11:36:19;23.40;44.60
56729;DHT22;42612;52.232;7.560;2022-07-29T11:45:07;23.40;44.90
56729;DHT22;42612;52.232;7.560;2022-07-29T11:47:59;23.40;44.80
56729;DHT22;42612;52.232;7.560;2022-07-29T11:50:45;23.40;45.00
56729;DHT22;42612;52.232;7.560;2022-07-29T11:53:31;23.40;45.20
56729;DHT22;42612;52.232;7.560;2022-07-29T11:56:20;23.30;45.30
56729;DHT22;42612;52.232;7.560;2022-07-29T11:59:07;23.30;45.40
56729;DHT22;42612;52.232;7.560;2022-07-29T12:01:55;23.30;45.60
56729;DHT22;42612;52.232;7.560;2022-07-29T12:04:55;23.20;45.50
56729;DHT22;42612;52.232;7.560;2022-07-29T12:07:42;23.20;45.50
56729;DHT22;42612;52.232;7.560;2022-07-29T12:10:30;23.10;45.60
56729;DHT22;42612;52.232;7.560;2022-07-29T12:13:17;23.10;45.80
56729;DHT22;42612;52.232;7.560;2022-07-29T12:16:04;23.10;45.80
56729;DHT22;42612;52.232;7.560;2022-07-29T12:18:57;23.10;46.00
56729;DHT22;42612;52.232;7.560;2022-07-29T12:21:46;23.10;46.10
56729;DHT22;42612;52.232;7.560;2022-07-29T12:24:43;23.10;46.10
56729;DHT22;42612;52.232;7.560;2022-07-29T12:27:29;23.10;46.30
56729;DHT22;42612;52.232;7.560;2022-07-29T12:30:16;23.10;46.30
56729;DHT22;42612;52.232;7.560;2022-07-29T12:33:09;23.10;46.20
56729;DHT22;42612;52.232;7.560;2022-07-29T12:35:57;23.20;46.40
56729;DHT22;42612;52.232;7.560;2022-07-29T12:38:44;23.20;46.60
56729;DHT22;42612;52.232;7.560;2022-07-29T12:41:30;23.30;46.80
56729;DHT22;42612;52.232;7.560;2022-07-29T12:44:16;23.30;46.80
56729;DHT22;42612;52.232;7.560;2022-07-29T12:47:04;23.30;46.90
56729;DHT22;42612;52.232;7.560;2022-07-29T12:49:51;23.30;47.10
56729;DHT22;42612;52.232;7.560;2022-07-29T12:52:53;23.40;47.00
56729;DHT22;42612;52.232;7.560;2022-07-29T12:58:32;23.50;47.20
56729;DHT22;42612;52.232;7.560;2022-07-29T13:01:19;23.60;47.20
56729;DHT22;42612;52.232;7.560;2022-07-29T13:04:06;23.60;47.20
56729;DHT22;42612;52.232;7.560;2022-07-29T13:06:57;23.60;47.30
56729;DHT22;42612;52.232;7.560;2022-07-29T13:09:53;23.70;47.40
56729;DHT22;42612;52.232;7.560;2022-07-29T13:12:40;23.70;47.10
56729;DHT22;42612;52.232;7.560;2022-07-29T13:16:05;23.70;47.30
56729;DHT22;42612;52.232;7.560;2022-07-29T13:22:26;23.70;47.30
56729;DHT22;42612;52.232;7.560;2022-07-29T13:25:12;23.70;47.30
56729;DHT22;42612;52.232;7.560;2022-07-29T13:27:58;23.60;47.30
56729;DHT22;42612;52.232;7.560;2022-07-29T13:30:44;23.60;47.40
56729;DHT22;42612;52.232;7.560;2022-07-29T13:33:30;23.60;47.30
56729;DHT22;42612;52.232;7.560;2022-07-29T13:36:16;23.70;47.40
56729;DHT22;42612;52.232;7.560;2022-07-29T13:39:03;23.60;47.30
56729;DHT22;42612;52.232;7.560;2022-07-29T13:41:49;23.60;47.40
56729;DHT22;42612;52.232;7.560;2022-07-29T13:44:35;23.70;47.40
56729;DHT22;42612;52.232;7.560;2022-07-29T13:47:21;23.70;47.50
56729;DHT22;42612;52.232;7.560;2022-07-29T13:50:08;23.70;47.40
56729;DHT22;42612;52.232;7.560;2022-07-29T13:52:55;23.70;47.40
56729;DHT22;42612;52.232;7.560;2022-07-29T13:55:41;23.80;47.40
56729;DHT22;42612;52.232;7.560;2022-07-29T13:58:27;23.80;47.50
56729;DHT22;42612;52.232;7.560;2022-07-29T14:01:13;23.80;47.30
56729;DHT22;42612;52.232;7.560;2022-07-29T14:03:59;23.80;47.30
56729;DHT22;42612;52.232;7.560;2022-07-29T14:06:45;23.80;47.30
56729;DHT22;42612;52.232;7.560;2022-07-29T14:09:31;23.80;47.40
56729;DHT22;42612;52.232;7.560;2022-07-29T14:12:17;23.80;47.30
56729;DHT22;42612;52.232;7.560;2022-07-29T14:15:03;23.80;47.40
56729;DHT22;42612;52.232;7.560;2022-07-29T14:17:49;23.80;47.50
56729;DHT22;42612;52.232;7.560;2022-07-29T14:20:35;23.80;47.70
56729;DHT22;42612;52.232;7.560;2022-07-29T14:23:21;23.90;47.80
56729;DHT22;42612;52.232;7.560;2022-07-29T14:26:07;23.90;47.90
56729;DHT22;42612;52.232;7.560;2022-07-29T14:28:53;24.00;48.00
56729;DHT22;42612;52.232;7.560;2022-07-29T14:31:39;24.10;48.20
56729;DHT22;42612;52.232;7.560;2022-07-29T14:34:25;24.20;48.20
56729;DHT22;42612;52.232;7.560;2022-07-29T14:37:11;24.30;48.50
56729;DHT22;42612;52.232;7.560;2022-07-29T14:39:57;24.50;48.50
56729;DHT22;42612;52.232;7.560;2022-07-29T14:42:47;24.60;48.20
56729;DHT22;42612;52.232;7.560;2022-07-29T14:45:33;24.90;48.30
56729;DHT22;42612;52.232;7.560;2022-07-29T14:48:19;25.00;47.90
56729;DHT22;42612;52.232;7.560;2022-07-29T14:51:05;25.20;47.80
56729;DHT22;42612;52.232;7.560;2022-07-29T14:53:51;25.40;47.80
56729;DHT22;42612;52.232;7.560;2022-07-29T14:56:37;25.50;47.60
56729;DHT22;42612;52.232;7.560;2022-07-29T14:59:23;25.70;48.10
56729;DHT22;42612;52.232;7.560;2022-07-29T15:02:09;25.90;47.20
56729;DHT22;42612;52.232;7.560;2022-07-29T15:04:55;26.10;47.10
56729;DHT22;42612;52.232;7.560;2022-07-29T15:07:42;26.30;46.80
56729;DHT22;42612;52.232;7.560;2022-07-29T15:10:28;26.40;46.60
56729;DHT22;42612;52.232;7.560;2022-07-29T15:13:14;26.60;46.60
56729;DHT22;42612;52.232;7.560;2022-07-29T15:16:01;26.70;46.20
56729;DHT22;42612;52.232;7.560;2022-07-29T15:18:46;26.80;46.00
56729;DHT22;42612;52.232;7.560;2022-07-29T15:21:32;26.80;45.60
56729;DHT22;42612;52.232;7.560;2022-07-29T15:24:19;26.90;45.50
56729;DHT22;42612;52.232;7.560;2022-07-29T15:27:05;26.90;45.20
56729;DHT22;42612;52.232;7.560;2022-07-29T15:29:51;26.90;45.20
56729;DHT22;42612;52.232;7.560;2022-07-29T15:32:37;26.90;45.10
56729;DHT22;42612;52.232;7.560;2022-07-29T15:35:23;26.90;45.00
56729;DHT22;42612;52.232;7.560;2022-07-29T15:38:09;26.90;44.90
56729;DHT22;42612;52.232;7.560;2022-07-29T15:40:55;26.90;44.70
56729;DHT22;42612;52.232;7.560;2022-07-29T15:43:43;26.80;44.60
56729;DHT22;42612;52.232;7.560;2022-07-29T15:46:30;26.90;44.60
56729;DHT22;42612;52.232;7.560;2022-07-29T15:49:35;26.90;44.50
56729;DHT22;42612;52.232;7.560;2022-07-29T15:52:24;26.90;44.50
56729;DHT22;42612;52.232;7.560;2022-07-29T15:55:10;26.90;44.40
56729;DHT22;42612;52.232;7.560;2022-07-29T15:57:56;26.80;44.20
56729;DHT22;42612;52.232;7.560;2022-07-29T16:00:42;26.90;44.30
56729;DHT22;42612;52.232;7.560;2022-07-29T16:03:28;26.90;44.30
56729;DHT22;42612;52.232;7.560;2022-07-29T16:06:14;26.80;44.20
56729;DHT22;42612;52.232;7.560;2022-07-29T16:09:01;26.90;44.20
56729;DHT22;42612;52.232;7.560;2022-07-29T16:11:47;26.90;44.30
56729;DHT22;42612;52.232;7.560;2022-07-29T16:14:35;26.90;44.20
56729;DHT22;42612;52.232;7.560;2022-07-29T16:17:21;26.90;44.20
56729;DHT22;42612;52.232;7.560;2022-07-29T16:20:07;26.90;44.20
56729;DHT22;42612;52.232;7.560;2022-07-29T16:22:53;27.00;44.20
56729;DHT22;42612;52.232;7.560;2022-07-29T16:25:39;27.00;44.10
56729;DHT22;42612;52.232;7.560;2022-07-29T16:28:25;27.00;44.00
56729;DHT22;42612;52.232;7.560;2022-07-29T16:31:11;27.10;44.10
56729;DHT22;42612;52.232;7.560;2022-07-29T16:33:58;27.10;44.20
56729;DHT22;42612;52.232;7.560;2022-07-29T16:36:45;27.10;44.10
56729;DHT22;42612;52.232;7.560;2022-07-29T16:39:31;27.20;44.10
56729;DHT22;42612;52.232;7.560;2022-07-29T16:42:17;27.20;43.90
56729;DHT22;42612;52.232;7.560;2022-07-29T16:45:03;27.30;43.90
56729;DHT22;42612;52.232;7.560;2022-07-29T16:47:49;27.30;43.80
56729;DHT22;42612;52.232;7.560;2022-07-29T16:50:35;27.40;44.00
56729;DHT22;42612;52.232;7.560;2022-07-29T16:53:23;27.50;44.10
56729;DHT22;42612;52.232;7.560;2022-07-29T16:56:09;27.50;44.10
56729;DHT22;42612;52.232;7.560;2022-07-29T16:58:56;27.60;44.70
56729;DHT22;42612;52.232;7.560;2022-07-29T17:01:42;27.70;44.00
56729;DHT22;42612;52.232;7.560;2022-07-29T17:04:29;27.80;43.90
56729;DHT22;42612;52.232;7.560;2022-07-29T17:07:15;27.80;43.90
56729;DHT22;42612;52.232;7.560;2022-07-29T17:10:01;27.90;43.70
56729;DHT22;42612;52.232;7.560;2022-07-29T17:12:49;28.00;43.80
56729;DHT22;42612;52.232;7.560;2022-07-29T17:15:35;28.10;43.70
56729;DHT22;42612;52.232;7.560;2022-07-29T17:18:21;28.10;43.40
56729;DHT22;42612;52.232;7.560;2022-07-29T17:21:07;28.20;43.40
56729;DHT22;42612;52.232;7.560;2022-07-29T17:23:53;28.20;43.30
56729;DHT22;42612;52.232;7.560;2022-07-29T17:26:39;28.30;43.30
56729;DHT22;42612;52.232;7.560;2022-07-29T17:29:27;28.40;43.30
56729;DHT22;42612;52.232;7.560;2022-07-29T17:32:13;28.40;43.20
56729;DHT22;42612;52.232;7.560;2022-07-29T17:34:59;28.50;43.40
56729;DHT22;42612;52.232;7.560;2022-07-29T17:37:45;28.50;42.90
56729;DHT22;42612;52.232;7.560;2022-07-29T17:40:31;28.50;42.90
56729;DHT22;42612;52.232;7.560;2022-07-29T17:43:17;28.50;42.80
56729;DHT22;42612;52.232;7.560;2022-07-29T17:46:03;28.50;42.80
56729;DHT22;42612;52.232;7.560;2022-07-29T17:48:49;28.50;42.60
56729;DHT22;42612;52.232;7.560;2022-07-29T17:51:35;28.50;42.60
56729;DHT22;42612;52.232;7.560;2022-07-29T17:54:21;28.50;42.50
56729;DHT22;42612;52.232;7.560;2022-07-29T17:57:07;28.50;42.40
56729;DHT22;42612;52.232;7.560;2022-07-29T17:59:53;28.50;42.40
56729;DHT22;42612;52.232;7.560;2022-07-29T18:02:39;28.50;42.30
56729;DHT22;42612;52.232;7.560;2022-07-29T18:05:25;28.50;42.30
56729;DHT22;42612;52.232;7.560;2022-07-29T18:08:11;28.50;42.20
56729;DHT22;42612;52.232;7.560;2022-07-29T18:10:57;28.40;41.90
56729;DHT22;42612;52.232;7.560;2022-07-29T18:13:43;28.40;42.00
56729;DHT22;42612;52.232;7.560;2022-07-29T18:16:29;28.30;42.00
56729;DHT22;42612;52.232;7.560;2022-07-29T18:19:15;28.20;41.90
56729;DHT22;42612;52.232;7.560;2022-07-29T18:22:02;28.10;41.90
56729;DHT22;42612;52.232;7.560;2022-07-29T18:24:48;28.10;41.90
56729;DHT22;42612;52.232;7.560;2022-07-29T18:27:34;28.00;41.90
56729;DHT22;42612;52.232;7.560;2022-07-29T18:30:19;27.90;41.80